Time;durP1;ratioP1;P1;durP2;ratioP2;P2;SDS_P1;SDS_P2;PMS_P1;PMS_P2;Temp;Humidity;BMP_temperature;BMP_pressure;BME280_temperature;BME280_humidity;BME280_pressure;Samples;Min_cycle;Max_cycle;Signal;HPM_P1;HPM_P2
2021/06/22 00:00:40;;;;;;;5.40;2.25;;;;;;;;;;5050857;28;20024;-86
2021/06/22 00:03:06;;;;;;;8.27;2.75;;;;;;;;;;5051729;28;20017;-87
2021/06/22 00:05:35;;;;;;;6.80;2.35;;;;;;;;;;5051922;28;20027;-87
2021/06/22 00:08:00;;;;;;;17.30;3.65;;;;;;;;;;5052098;28;20019;-87
2021/06/22 00:10:27;;;;;;;5.38;2.40;;;;;;;;;;5051935;28;20560;-87
2021/06/22 00:12:52;;;;;;;5.90;2.28;;;;;;;;;;5051554;28;20040;-87
2021/06/22 00:15:18;;;;;;;5.35;2.25;;;;;;;;;;5052004;28;20047;-87
2021/06/22 00:17:44;;;;;;;8.57;2.00;;;;;;;;;;5053257;28;20025;-87
2021/06/22 00:20:09;;;;;;;5.35;2.00;;;;;;;;;;5051592;28;20028;-87
2021/06/22 00:22:35;;;;;;;5.75;2.10;;;;;;;;;;5051473;28;20151;-87
2021/06/22 00:25:00;;;;;;;6.88;2.08;;;;;;;;;;5052460;28;20025;-87
2021/06/22 00:27:25;;;;;;;5.95;2.00;;;;;;;;;;5051405;28;20017;-87
2021/06/22 00:29:51;;;;;;;4.95;2.15;;;;;;;;;;5050687;28;20468;-87
2021/06/22 00:32:17;;;;;;;7.45;1.98;;;;;;;;;;5051392;28;20103;-87
2021/06/22 00:34:44;;;;;;;5.75;1.90;;;;;;;;;;5051563;28;20430;-86
2021/06/22 00:37:09;;;;;;;4.63;1.90;;;;;;;;;;5051132;28;20020;-87
2021/06/22 00:39:34;;;;;;;4.88;1.90;;;;;;;;;;5051747;28;20036;-87
2021/06/22 00:41:59;;;;;;;5.90;1.90;;;;;;;;;;5050867;28;20063;-87
2021/06/22 00:44:24;;;;;;;8.10;1.80;;;;;;;;;;5050856;28;20430;-87
2021/06/22 00:46:50;;;;;;;10.65;2.50;;;;;;;;;;5050912;28;20017;-87
2021/06/22 00:49:15;;;;;;;3.42;1.92;;;;;;;;;;5052534;28;20012;-87
2021/06/22 00:51:42;;;;;;;7.35;2.78;;;;;;;;;;5051438;28;20076;-86
2021/06/22 00:54:08;;;;;;;5.97;1.90;;;;;;;;;;5051050;28;20020;-87
2021/06/22 00:56:34;;;;;;;7.50;1.98;;;;;;;;;;5049085;28;20104;-87
2021/06/22 00:58:59;;;;;;;4.45;1.60;;;;;;;;;;5051158;28;20097;-87
2021/06/22 01:01:24;;;;;;;4.40;1.75;;;;;;;;;;5051862;28;20021;-87
2021/06/22 01:03:49;;;;;;;11.80;1.95;;;;;;;;;;5051799;28;20001;-86
2021/06/22 01:06:15;;;;;;;8.43;1.88;;;;;;;;;;5050490;28;20024;-87
2021/06/22 01:08:40;;;;;;;4.88;1.67;;;;;;;;;;5052722;28;20017;-87
2021/06/22 01:11:05;;;;;;;8.52;1.95;;;;;;;;;;5051215;28;20021;-87
2021/06/22 01:13:30;;;;;;;7.85;1.80;;;;;;;;;;5051710;28;20031;-87
2021/06/22 01:15:56;;;;;;;5.70;1.90;;;;;;;;;;5052009;28;20116;-87
2021/06/22 01:18:21;;;;;;;6.00;1.95;;;;;;;;;;5050431;28;20053;-87
2021/06/22 01:20:46;;;;;;;16.92;2.30;;;;;;;;;;5051021;28;20074;-87
2021/06/22 01:23:11;;;;;;;8.63;2.40;;;;;;;;;;5050339;28;20021;-86
2021/06/22 01:25:37;;;;;;;4.00;1.65;;;;;;;;;;5050578;28;20302;-87
2021/06/22 01:28:02;;;;;;;7.88;2.47;;;;;;;;;;5050756;28;20017;-87
2021/06/22 01:30:29;;;;;;;8.77;2.13;;;;;;;;;;5049939;28;20107;-87
2021/06/22 01:32:55;;;;;;;4.05;1.88;;;;;;;;;;5050752;28;20046;-87
2021/06/22 01:35:20;;;;;;;6.78;1.65;;;;;;;;;;5051652;28;20021;-87
2021/06/22 01:38:02;;;;;;;7.05;2.00;;;;;;;;;;5050400;28;20009;-86
2021/06/22 01:40:28;;;;;;;9.35;2.63;;;;;;;;;;5050093;28;20074;-87
2021/06/22 01:42:57;;;;;;;4.35;1.67;;;;;;;;;;5050444;28;20430;-86
2021/06/22 01:45:22;;;;;;;5.45;1.80;;;;;;;;;;5051870;28;20033;-87
2021/06/22 01:47:47;;;;;;;6.10;2.00;;;;;;;;;;5050440;28;20024;-87
2021/06/22 01:50:15;;;;;;;3.80;1.92;;;;;;;;;;5049915;28;20020;-87
2021/06/22 01:52:40;;;;;;;5.47;1.83;;;;;;;;;;5050097;28;20056;-87
2021/06/22 01:57:50;;;;;;;11.35;1.80;;;;;;;;;;5051697;28;20551;-86
2021/06/22 02:00:15;;;;;;;5.68;2.13;;;;;;;;;;5049928;28;20211;-87
2021/06/22 02:02:41;;;;;;;3.42;2.10;;;;;;;;;;5049836;28;20005;-87
2021/06/22 02:05:06;;;;;;;9.90;2.03;;;;;;;;;;5050171;28;20016;-87
2021/06/22 02:07:31;;;;;;;8.10;1.92;;;;;;;;;;5049853;28;20032;-86
2021/06/22 02:09:56;;;;;;;10.30;2.95;;;;;;;;;;5049315;28;20020;-86
2021/06/22 02:12:21;;;;;;;9.18;2.35;;;;;;;;;;5049922;28;20048;-86
2021/06/22 02:14:47;;;;;;;9.27;3.05;;;;;;;;;;5049730;28;20461;-87
2021/06/22 02:17:12;;;;;;;6.80;2.38;;;;;;;;;;5048705;28;20120;-86
2021/06/22 02:19:37;;;;;;;8.02;2.55;;;;;;;;;;5049578;28;20385;-86
2021/06/22 02:22:02;;;;;;;9.98;3.10;;;;;;;;;;5049914;28;20017;-86
2021/06/22 02:24:27;;;;;;;9.65;2.80;;;;;;;;;;5051967;28;20016;-86
2021/06/22 02:26:53;;;;;;;10.93;2.67;;;;;;;;;;5053582;28;20013;-87
2021/06/22 02:29:18;;;;;;;5.00;2.15;;;;;;;;;;5053862;28;20055;-87
2021/06/22 02:31:43;;;;;;;8.20;2.95;;;;;;;;;;5053667;28;20024;-86
2021/06/22 02:34:08;;;;;;;11.20;2.70;;;;;;;;;;5054778;28;20351;-85
2021/06/22 02:36:33;;;;;;;10.40;2.90;;;;;;;;;;5053760;28;20020;-86
2021/06/22 02:38:59;;;;;;;8.50;2.53;;;;;;;;;;5054161;28;20101;-87
2021/06/22 02:41:24;;;;;;;9.52;2.50;;;;;;;;;;5054909;28;20498;-86
2021/06/22 02:43:49;;;;;;;8.93;2.72;;;;;;;;;;5054073;28;20506;-87
2021/06/22 02:46:14;;;;;;;8.38;2.60;;;;;;;;;;5053979;28;20017;-86
2021/06/22 02:48:39;;;;;;;18.02;3.33;;;;;;;;;;5053755;28;20107;-87
2021/06/22 02:51:05;;;;;;;11.57;3.22;;;;;;;;;;5053625;28;20028;-87
2021/06/22 02:53:30;;;;;;;11.30;2.78;;;;;;;;;;5053042;28;20055;-87
2021/06/22 02:55:55;;;;;;;8.23;2.20;;;;;;;;;;5052981;28;20021;-86
2021/06/22 02:58:20;;;;;;;8.18;2.50;;;;;;;;;;5054914;28;20471;-87
2021/06/22 03:00:45;;;;;;;4.85;2.42;;;;;;;;;;5053011;28;20021;-86
2021/06/22 03:03:11;;;;;;;8.25;2.55;;;;;;;;;;5054281;28;20028;-87
2021/06/22 03:05:36;;;;;;;8.18;2.30;;;;;;;;;;5052942;28;20070;-86
2021/06/22 03:08:02;;;;;;;11.80;2.88;;;;;;;;;;5052135;28;20041;-86
2021/06/22 03:10:27;;;;;;;6.65;2.47;;;;;;;;;;5053197;28;20052;-86
2021/06/22 03:12:53;;;;;;;5.03;2.63;;;;;;;;;;5052895;28;20017;-87
2021/06/22 03:15:18;;;;;;;7.40;2.60;;;;;;;;;;5053499;28;20017;-86
2021/06/22 03:17:44;;;;;;;9.80;2.80;;;;;;;;;;5052674;28;20150;-87
2021/06/22 03:20:10;;;;;;;8.88;2.80;;;;;;;;;;5054546;28;20411;-87
2021/06/22 03:22:35;;;;;;;12.07;2.70;;;;;;;;;;5053047;28;20376;-87
2021/06/22 03:25:00;;;;;;;3.55;2.10;;;;;;;;;;5054160;28;20071;-87
2021/06/22 03:27:26;;;;;;;7.18;3.40;;;;;;;;;;5053448;28;20017;-87
2021/06/22 03:29:51;;;;;;;17.33;3.15;;;;;;;;;;5047553;28;20091;-87
2021/06/22 03:32:16;;;;;;;8.85;2.88;;;;;;;;;;5053100;28;20044;-87
2021/06/22 03:34:41;;;;;;;13.45;3.03;;;;;;;;;;5051869;28;20040;-86
2021/06/22 03:37:07;;;;;;;16.30;3.22;;;;;;;;;;5053300;28;20024;-87
2021/06/22 03:39:32;;;;;;;8.27;2.45;;;;;;;;;;5052618;28;20029;-87
2021/06/22 03:41:57;;;;;;;9.57;2.70;;;;;;;;;;5053180;28;20055;-86
2021/06/22 03:44:22;;;;;;;8.15;3.10;;;;;;;;;;5052287;28;20073;-87
2021/06/22 03:46:48;;;;;;;9.48;2.60;;;;;;;;;;5052339;28;20115;-87
2021/06/22 03:49:13;;;;;;;20.42;3.10;;;;;;;;;;5053828;28;20368;-86
2021/06/22 03:51:38;;;;;;;6.03;2.65;;;;;;;;;;5052668;28;20021;-86
2021/06/22 03:54:03;;;;;;;8.10;3.10;;;;;;;;;;5052281;28;20017;-87
2021/06/22 03:56:29;;;;;;;4.90;2.90;;;;;;;;;;5051762;28;20017;-86
2021/06/22 03:58:54;;;;;;;9.77;2.83;;;;;;;;;;5052255;28;20013;-87
2021/06/22 04:01:19;;;;;;;11.48;4.38;;;;;;;;;;5052861;28;20057;-87
2021/06/22 04:03:45;;;;;;;10.25;3.83;;;;;;;;;;5051987;28;20060;-86
2021/06/22 04:06:10;;;;;;;11.32;3.25;;;;;;;;;;5052302;28;20024;-86
2021/06/22 04:08:37;;;;;;;11.27;3.20;;;;;;;;;;5052445;28;20021;-86
2021/06/22 04:11:03;;;;;;;11.35;3.47;;;;;;;;;;5051885;28;20086;-86
2021/06/22 04:13:28;;;;;;;19.02;3.83;;;;;;;;;;5051680;28;20032;-86
2021/06/22 04:15:53;;;;;;;8.25;3.28;;;;;;;;;;5052379;28;20029;-86
2021/06/22 04:18:19;;;;;;;7.45;3.78;;;;;;;;;;5051926;28;20373;-86
2021/06/22 04:20:44;;;;;;;11.95;3.47;;;;;;;;;;5051652;28;20483;-86
2021/06/22 04:23:09;;;;;;;15.05;4.43;;;;;;;;;;5050846;28;20009;-86
2021/06/22 04:25:35;;;;;;;14.43;3.85;;;;;;;;;;5051272;28;20056;-86
2021/06/22 04:28:01;;;;;;;10.23;3.05;;;;;;;;;;5051630;28;20104;-86
2021/06/22 04:30:26;;;;;;;10.35;3.45;;;;;;;;;;5052153;28;20101;-86
2021/06/22 04:32:51;;;;;;;10.50;3.78;;;;;;;;;;5052059;28;20476;-87
2021/06/22 04:35:17;;;;;;;10.98;3.42;;;;;;;;;;5051603;28;20484;-86
2021/06/22 04:37:42;;;;;;;11.27;4.32;;;;;;;;;;5052093;28;20442;-87
2021/06/22 04:40:08;;;;;;;19.02;3.88;;;;;;;;;;5051604;28;20484;-86
2021/06/22 04:42:33;;;;;;;8.10;3.45;;;;;;;;;;5052651;28;20053;-86
2021/06/22 04:44:58;;;;;;;12.80;4.18;;;;;;;;;;5051656;28;20025;-86
2021/06/22 04:47:23;;;;;;;12.57;4.32;;;;;;;;;;5051325;28;20453;-86
2021/06/22 04:49:49;;;;;;;13.77;3.88;;;;;;;;;;5051541;28;20072;-87
2021/06/22 04:52:14;;;;;;;12.13;4.55;;;;;;;;;;5051881;28;20107;-87
2021/06/22 04:54:40;;;;;;;16.20;4.40;;;;;;;;;;5051170;28;20021;-87
2021/06/22 04:57:05;;;;;;;10.43;4.00;;;;;;;;;;5052452;28;20095;-86
2021/06/22 04:59:34;;;;;;;10.90;4.00;;;;;;;;;;5051048;28;20052;-87
2021/06/22 05:02:00;;;;;;;9.27;3.97;;;;;;;;;;5050957;28;20111;-86
2021/06/22 05:04:25;;;;;;;13.63;4.20;;;;;;;;;;5050821;28;20147;-87
2021/06/22 05:06:50;;;;;;;13.55;4.80;;;;;;;;;;5051242;28;20040;-86
2021/06/22 05:09:15;;;;;;;15.93;3.58;;;;;;;;;;5050625;28;20020;-87
2021/06/22 05:11:40;;;;;;;12.38;3.83;;;;;;;;;;5051011;28;20028;-87
2021/06/22 05:14:06;;;;;;;9.32;3.53;;;;;;;;;;5050864;28;20151;-86
2021/06/22 05:16:31;;;;;;;16.00;3.72;;;;;;;;;;5050976;28;20021;-87
2021/06/22 05:18:56;;;;;;;12.93;4.00;;;;;;;;;;5052427;28;20025;-87
2021/06/22 05:21:21;;;;;;;10.40;3.33;;;;;;;;;;5050010;28;20392;-87
2021/06/22 05:23:46;;;;;;;10.90;3.53;;;;;;;;;;5050606;28;20033;-87
2021/06/22 05:26:12;;;;;;;16.38;3.95;;;;;;;;;;5052741;28;20029;-87
2021/06/22 05:28:37;;;;;;;11.27;3.63;;;;;;;;;;5051704;28;20385;-87
2021/06/22 05:31:02;;;;;;;9.05;3.63;;;;;;;;;;5051750;28;20117;-86
2021/06/22 05:33:27;;;;;;;10.95;3.33;;;;;;;;;;5051507;28;20053;-87
2021/06/22 05:35:53;;;;;;;13.77;3.72;;;;;;;;;;5050032;28;20044;-87
2021/06/22 05:38:18;;;;;;;17.15;4.22;;;;;;;;;;5051414;28;20025;-86
2021/06/22 05:40:43;;;;;;;14.93;3.92;;;;;;;;;;5051178;28;20606;-86
2021/06/22 05:43:08;;;;;;;8.93;3.55;;;;;;;;;;5051544;28;20009;-87
2021/06/22 05:45:34;;;;;;;7.80;3.40;;;;;;;;;;5051540;28;20017;-87
2021/06/22 05:47:59;;;;;;;8.40;3.30;;;;;;;;;;5050310;28;20107;-87
2021/06/22 05:50:24;;;;;;;11.60;3.65;;;;;;;;;;5050187;28;20503;-87
2021/06/22 05:52:50;;;;;;;9.70;3.78;;;;;;;;;;5051305;28;20021;-86
2021/06/22 05:55:16;;;;;;;9.80;3.22;;;;;;;;;;5049097;28;20107;-87
2021/06/22 05:57:45;;;;;;;11.02;3.97;;;;;;;;;;5049618;28;20104;-87
2021/06/22 06:00:11;;;;;;;7.97;3.17;;;;;;;;;;5050167;28;20052;-87
2021/06/22 06:02:36;;;;;;;17.25;3.75;;;;;;;;;;5049843;28;20072;-87
2021/06/22 06:05:01;;;;;;;9.07;3.38;;;;;;;;;;5049760;28;20017;-87
2021/06/22 06:07:27;;;;;;;8.55;2.78;;;;;;;;;;5049226;28;20051;-86
2021/06/22 06:09:52;;;;;;;10.93;3.90;;;;;;;;;;5049013;28;20029;-87
2021/06/22 06:12:17;;;;;;;12.05;4.60;;;;;;;;;;5050745;28;20029;-87
2021/06/22 06:14:43;;;;;;;13.00;3.92;;;;;;;;;;5050788;28;20638;-87
2021/06/22 06:17:08;;;;;;;11.50;4.07;;;;;;;;;;5051059;28;20467;-87
2021/06/22 06:19:34;;;;;;;14.13;4.07;;;;;;;;;;5051097;28;20025;-88
2021/06/22 06:21:59;;;;;;;14.73;4.35;;;;;;;;;;5052623;28;20017;-88
2021/06/22 06:24:24;;;;;;;10.05;4.15;;;;;;;;;;5050947;28;20506;-89
2021/06/22 06:29:32;;;;;;;9.02;4.32;;;;;;;;;;5053250;28;20025;-89
2021/06/22 06:31:57;;;;;;;13.00;4.18;;;;;;;;;;5050535;28;20472;-89
2021/06/22 06:34:23;;;;;;;7.82;3.67;;;;;;;;;;5051560;28;20070;-88
2021/06/22 06:36:48;;;;;;;10.93;3.92;;;;;;;;;;5048315;28;20025;-88
2021/06/22 06:39:13;;;;;;;17.55;4.75;;;;;;;;;;5049904;28;20029;-89
2021/06/22 06:41:38;;;;;;;9.85;4.05;;;;;;;;;;5050719;28;20498;-89
2021/06/22 06:44:07;;;;;;;8.50;4.03;;;;;;;;;;5050361;28;20033;-88
2021/06/22 06:46:32;;;;;;;10.40;3.97;;;;;;;;;;5049423;28;20021;-88
2021/06/22 06:48:57;;;;;;;10.30;4.38;;;;;;;;;;5050085;28;20024;-88
2021/06/22 06:51:22;;;;;;;9.50;4.82;;;;;;;;;;5049119;28;20021;-87
2021/06/22 06:53:48;;;;;;;12.82;4.97;;;;;;;;;;5032519;28;20497;-88
2021/06/22 06:56:13;;;;;;;9.85;4.03;;;;;;;;;;5050486;28;20021;-88
2021/06/22 06:58:38;;;;;;;13.27;4.40;;;;;;;;;;5050656;28;20025;-87
2021/06/22 07:01:03;;;;;;;12.52;4.72;;;;;;;;;;5050377;28;20094;-88
2021/06/22 07:03:28;;;;;;;13.73;4.60;;;;;;;;;;5051844;28;20013;-87
2021/06/22 07:05:54;;;;;;;8.60;3.88;;;;;;;;;;5051867;28;20009;-87
2021/06/22 07:08:19;;;;;;;11.82;4.32;;;;;;;;;;5049903;28;20048;-87
2021/06/22 07:10:44;;;;;;;12.07;4.60;;;;;;;;;;5052619;28;20029;-88
2021/06/22 07:13:15;;;;;;;14.68;4.28;;;;;;;;;;5053500;28;20047;-87
2021/06/22 07:15:40;;;;;;;9.20;4.50;;;;;;;;;;5054149;28;20024;-88
2021/06/22 07:18:06;;;;;;;9.45;4.68;;;;;;;;;;5054151;28;20021;-87
2021/06/22 07:20:31;;;;;;;10.57;4.70;;;;;;;;;;5054108;28;20112;-87
2021/06/22 07:22:56;;;;;;;12.10;4.63;;;;;;;;;;5048813;28;20539;-87
2021/06/22 07:25:25;;;;;;;8.15;4.45;;;;;;;;;;5049595;28;20017;-88
2021/06/22 07:27:51;;;;;;;14.85;4.93;;;;;;;;;;5079951;28;20020;-87
2021/06/22 07:30:16;;;;;;;8.60;3.85;;;;;;;;;;5053557;28;20024;-88
2021/06/22 07:32:41;;;;;;;10.98;4.93;;;;;;;;;;5053797;28;20041;-87
2021/06/22 07:35:07;;;;;;;10.02;4.32;;;;;;;;;;5053706;28;20428;-87
2021/06/22 07:37:32;;;;;;;13.63;4.32;;;;;;;;;;5055066;28;20033;-86
2021/06/22 07:39:57;;;;;;;17.98;5.55;;;;;;;;;;5052703;28;20111;-87
2021/06/22 07:42:22;;;;;;;13.82;4.97;;;;;;;;;;5053752;28;20036;-89
2021/06/22 07:44:48;;;;;;;9.15;4.80;;;;;;;;;;5053517;28;20036;-87
2021/06/22 07:47:13;;;;;;;14.23;5.18;;;;;;;;;;5053784;28;20017;-88
2021/06/22 07:49:38;;;;;;;11.38;4.60;;;;;;;;;;5055064;28;20028;-86
2021/06/22 07:52:06;;;;;;;12.45;4.70;;;;;;;;;;5054319;28;20043;-87
2021/06/22 07:54:31;;;;;;;16.90;5.50;;;;;;;;;;5053016;28;20438;-86
2021/06/22 07:56:56;;;;;;;12.20;4.65;;;;;;;;;;5052865;28;20115;-87
2021/06/22 07:59:21;;;;;;;13.82;4.93;;;;;;;;;;5053560;28;20027;-87
2021/06/22 08:01:47;;;;;;;12.75;4.70;;;;;;;;;;5053550;28;20376;-87
2021/06/22 08:04:12;;;;;;;10.65;4.72;;;;;;;;;;5052828;28;20070;-87
2021/06/22 08:06:38;;;;;;;16.67;4.70;;;;;;;;;;5053325;28;20448;-87
2021/06/22 08:09:03;;;;;;;14.68;5.05;;;;;;;;;;5053040;28;20024;-87
2021/06/22 08:11:28;;;;;;;9.50;4.20;;;;;;;;;;5052766;28;20017;-87
2021/06/22 08:13:53;;;;;;;11.50;4.85;;;;;;;;;;5052674;28;20052;-87
2021/06/22 08:16:19;;;;;;;9.73;4.53;;;;;;;;;;5053902;28;20029;-87
2021/06/22 08:18:44;;;;;;;11.93;4.53;;;;;;;;;;5052969;28;20044;-87
2021/06/22 08:21:09;;;;;;;16.52;5.70;;;;;;;;;;5051715;28;20091;-87
2021/06/22 08:23:34;;;;;;;17.85;5.10;;;;;;;;;;5052894;28;20025;-86
2021/06/22 08:26:01;;;;;;;12.38;4.43;;;;;;;;;;5052842;28;20044;-87
2021/06/22 08:28:26;;;;;;;17.77;5.50;;;;;;;;;;5052540;28;20031;-87
2021/06/22 08:30:51;;;;;;;16.83;5.63;;;;;;;;;;5053827;28;20095;-86
2021/06/22 08:33:16;;;;;;;15.10;5.40;;;;;;;;;;5052637;28;20070;-87
2021/06/22 08:35:42;;;;;;;13.88;5.80;;;;;;;;;;5052820;28;20043;-87
2021/06/22 08:38:09;;;;;;;12.20;5.68;;;;;;;;;;5051883;28;20074;-86
2021/06/22 08:40:34;;;;;;;14.23;5.13;;;;;;;;;;5052160;28;20032;-86
2021/06/22 08:43:00;;;;;;;17.63;6.03;;;;;;;;;;5051704;28;20017;-87
2021/06/22 08:45:25;;;;;;;16.35;6.70;;;;;;;;;;5052246;28;20475;-86
2021/06/22 08:47:50;;;;;;;10.45;5.05;;;;;;;;;;5053700;28;20078;-86
2021/06/22 08:50:16;;;;;;;14.57;6.65;;;;;;;;;;5051884;28;20029;-87
2021/06/22 08:52:42;;;;;;;24.52;6.97;;;;;;;;;;5053246;28;20435;-87
2021/06/22 08:55:09;;;;;;;22.23;7.47;;;;;;;;;;5051775;28;20024;-86
2021/06/22 08:57:35;;;;;;;18.73;7.38;;;;;;;;;;5052265;28;20028;-87
2021/06/22 09:00:00;;;;;;;22.42;7.68;;;;;;;;;;5051925;28;20375;-87
2021/06/22 09:02:27;;;;;;;18.80;8.18;;;;;;;;;;5052242;28;20040;-87
2021/06/22 09:04:53;;;;;;;16.73;7.22;;;;;;;;;;5051973;28;20117;-87
2021/06/22 09:07:37;;;;;;;15.90;7.45;;;;;;;;;;5052143;28;20048;-87
2021/06/22 09:10:05;;;;;;;17.33;7.13;;;;;;;;;;5039332;28;20144;-87
2021/06/22 09:12:30;;;;;;;20.73;7.03;;;;;;;;;;5052163;28;20112;-87
2021/06/22 09:14:56;;;;;;;21.05;8.13;;;;;;;;;;5051913;28;20062;-87
2021/06/22 09:17:33;;;;;;;19.70;8.05;;;;;;;;;;5044762;28;20442;-87
2021/06/22 09:19:58;;;;;;;19.40;8.82;;;;;;;;;;5050707;28;20175;-87
2021/06/22 09:22:27;;;;;;;17.13;8.70;;;;;;;;;;5050198;28;20196;-87
2021/06/22 09:25:03;;;;;;;25.17;10.07;;;;;;;;;;5051814;28;20096;-87
2021/06/22 09:27:47;;;;;;;15.68;10.10;;;;;;;;;;5050601;28;20025;-87
2021/06/22 09:30:12;;;;;;;16.92;8.80;;;;;;;;;;5083848;28;20086;-87
2021/06/22 09:32:38;;;;;;;17.67;9.43;;;;;;;;;;5050410;28;20056;-87
2021/06/22 09:35:19;;;;;;;19.75;9.57;;;;;;;;;;5050500;28;20017;-87
2021/06/22 09:37:49;;;;;;;16.67;9.00;;;;;;;;;;5050596;28;20021;-87
2021/06/22 09:40:26;;;;;;;21.15;9.82;;;;;;;;;;5050056;28;20408;-87
2021/06/22 09:42:53;;;;;;;17.13;8.88;;;;;;;;;;5050435;28;20111;-87
2021/06/22 09:45:19;;;;;;;36.13;11.40;;;;;;;;;;5050278;28;20023;-87
2021/06/22 09:47:45;;;;;;;20.98;9.55;;;;;;;;;;5051495;28;20104;-87
2021/06/22 09:50:29;;;;;;;20.30;9.18;;;;;;;;;;5051325;28;20379;-87
2021/06/22 09:52:54;;;;;;;18.70;10.52;;;;;;;;;;5050875;28;20422;-87
2021/06/22 09:55:33;;;;;;;26.25;12.77;;;;;;;;;;5050837;28;20025;-86
2021/06/22 09:57:58;;;;;;;24.88;11.35;;;;;;;;;;5051397;28;20393;-86
2021/06/22 10:00:35;;;;;;;25.52;10.95;;;;;;;;;;5051086;28;20025;-87
2021/06/22 10:03:00;;;;;;;23.85;11.40;;;;;;;;;;5051143;28;20082;-87
2021/06/22 10:05:26;;;;;;;26.30;13.82;;;;;;;;;;5050517;28;20021;-86
2021/06/22 10:08:00;;;;;;;27.38;12.40;;;;;;;;;;5050952;28;20045;-87
2021/06/22 10:10:35;;;;;;;23.70;11.07;;;;;;;;;;5051358;28;20087;-85
2021/06/22 10:13:00;;;;;;;23.50;12.15;;;;;;;;;;5051188;28;20014;-86
2021/06/22 10:15:26;;;;;;;27.02;14.48;;;;;;;;;;5050785;28;20447;-87
2021/06/22 10:17:51;;;;;;;25.50;13.93;;;;;;;;;;5051279;28;20027;-87
2021/06/22 10:20:16;;;;;;;29.75;13.70;;;;;;;;;;5051215;28;20040;-86
2021/06/22 10:22:43;;;;;;;32.40;13.55;;;;;;;;;;5050854;28;20102;-86
2021/06/22 10:25:10;;;;;;;24.48;14.68;;;;;;;;;;5050764;28;20032;-86
2021/06/22 10:27:35;;;;;;;30.17;15.57;;;;;;;;;;5051256;28;20487;-86
2021/06/22 10:30:03;;;;;;;28.25;13.57;;;;;;;;;;5051227;28;20017;-86
2021/06/22 10:32:30;;;;;;;23.75;12.30;;;;;;;;;;5051541;28;20025;-86
2021/06/22 10:35:00;;;;;;;24.98;13.65;;;;;;;;;;5050748;28;20108;-86
2021/06/22 10:37:36;;;;;;;32.63;14.35;;;;;;;;;;5050744;28;20025;-86
2021/06/22 10:40:05;;;;;;;29.75;13.85;;;;;;;;;;5050388;28;20048;-85
2021/06/22 10:42:51;;;;;;;24.45;14.80;;;;;;;;;;5050158;28;20387;-86
2021/06/22 10:45:16;;;;;;;27.30;15.10;;;;;;;;;;5044520;28;20079;-86
2021/06/22 10:47:45;;;;;;;25.55;14.52;;;;;;;;;;5054719;28;20020;-86
2021/06/22 10:50:12;;;;;;;31.85;16.23;;;;;;;;;;5054304;28;20071;-86
2021/06/22 10:52:46;;;;;;;26.02;15.10;;;;;;;;;;5054613;28;20067;-86
2021/06/22 10:55:19;;;;;;;34.17;15.68;;;;;;;;;;5087072;28;20094;-86
2021/06/22 10:57:54;;;;;;;34.78;15.73;;;;;;;;;;5054505;28;20021;-86
2021/06/22 11:00:19;;;;;;;34.60;17.67;;;;;;;;;;5087782;28;20025;-86
2021/06/22 11:02:56;;;;;;;30.30;16.20;;;;;;;;;;5054290;28;20052;-86
2021/06/22 11:05:21;;;;;;;34.67;16.63;;;;;;;;;;5081103;28;20303;-86
2021/06/22 11:07:54;;;;;;;28.88;15.98;;;;;;;;;;5054088;28;20099;-86
2021/06/22 11:10:19;;;;;;;;;;;;;;;;;;5084496;28;20112;-86
2021/06/22 11:12:45;;;;;;;32.70;16.70;;;;;;;;;;5083778;28;20406;-86
2021/06/22 11:15:10;;;;;;;27.27;15.05;;;;;;;;;;5052251;28;20043;-86
2021/06/22 11:17:42;;;;;;;34.35;18.33;;;;;;;;;;5051881;28;20021;-86
2021/06/22 11:20:18;;;;;;;32.30;17.40;;;;;;;;;;5060999;28;20362;-86
2021/06/22 11:22:59;;;;;;;31.10;18.10;;;;;;;;;;5059307;28;20292;-86
2021/06/22 11:25:43;;;;;;;34.90;19.77;;;;;;;;;;5053492;28;20017;-87
2021/06/22 11:28:09;;;;;;;29.67;17.65;;;;;;;;;;5053355;28;20067;-86
2021/06/22 11:30:46;;;;;;;34.40;19.13;;;;;;;;;;5052785;28;20448;-86
2021/06/22 11:33:30;;;;;;;28.73;14.95;;;;;;;;;;5056085;28;20023;-89
2021/06/22 11:36:13;;;;;;;35.75;19.45;;;;;;;;;;5056030;28;20020;-89
2021/06/22 11:38:39;;;;;;;28.63;17.65;;;;;;;;;;5052630;28;20021;-86
2021/06/22 11:41:14;;;;;;;32.58;20.00;;;;;;;;;;5051368;28;20048;-87
2021/06/22 11:44:15;;;;;;;31.98;20.23;;;;;;;;;;5051997;28;20032;-87
2021/06/22 11:46:41;;;;;;;41.72;19.08;;;;;;;;;;5048568;28;20040;-87
2021/06/22 11:49:06;;;;;;;33.58;18.52;;;;;;;;;;5040496;28;20033;-86
2021/06/22 11:51:47;;;;;;;28.98;18.48;;;;;;;;;;5052305;28;20020;-86
2021/06/22 11:54:12;;;;;;;32.00;18.08;;;;;;;;;;5050496;28;20066;-87
2021/06/22 11:56:38;;;;;;;31.67;19.33;;;;;;;;;;5051282;28;20100;-87
2021/06/22 11:59:03;;;;;;;31.70;19.25;;;;;;;;;;5052378;28;20025;-87
2021/06/22 12:01:29;;;;;;;35.15;18.73;;;;;;;;;;5066016;28;20070;-86
2021/06/22 12:03:54;;;;;;;29.00;17.77;;;;;;;;;;5062997;28;20044;-86
2021/06/22 12:06:23;;;;;;;29.90;19.60;;;;;;;;;;5052195;28;20019;-86
2021/06/22 12:08:48;;;;;;;33.20;18.58;;;;;;;;;;5052429;28;20017;-86
2021/06/22 12:11:26;;;;;;;28.98;17.40;;;;;;;;;;5051477;28;20418;-87
2021/06/22 12:13:53;;;;;;;33.90;19.88;;;;;;;;;;5044178;28;20024;-86
2021/06/22 12:16:20;;;;;;;32.33;18.70;;;;;;;;;;5052341;28;20028;-86
2021/06/22 12:18:45;;;;;;;32.05;19.73;;;;;;;;;;5052497;28;20143;-86
2021/06/22 12:21:10;;;;;;;39.78;20.10;;;;;;;;;;5052233;28;20100;-86
2021/06/22 12:23:36;;;;;;;36.90;22.10;;;;;;;;;;5052203;28;20423;-86
2021/06/22 12:26:03;;;;;;;36.75;21.88;;;;;;;;;;5052060;28;20021;-87
2021/06/22 12:28:32;;;;;;;32.40;20.38;;;;;;;;;;5052507;28;20021;-86
2021/06/22 12:30:58;;;;;;;39.72;18.00;;;;;;;;;;5052000;28;20353;-87
2021/06/22 12:33:25;;;;;;;43.00;20.65;;;;;;;;;;5052355;28;20017;-86
2021/06/22 12:35:51;;;;;;;35.03;19.27;;;;;;;;;;5052341;28;20032;-86
2021/06/22 12:38:17;;;;;;;32.20;18.50;;;;;;;;;;5051943;28;20028;-86
2021/06/22 12:40:44;;;;;;;30.13;19.10;;;;;;;;;;5052280;28;20029;-87
2021/06/22 12:43:10;;;;;;;36.50;21.13;;;;;;;;;;5052003;28;20040;-87
2021/06/22 12:45:35;;;;;;;36.40;21.63;;;;;;;;;;5051563;28;20029;-87
2021/06/22 12:48:01;;;;;;;31.80;20.08;;;;;;;;;;5052077;28;20373;-87
2021/06/22 12:50:33;;;;;;;37.80;21.33;;;;;;;;;;5052940;28;20016;-87
2021/06/22 12:52:59;;;;;;;34.05;21.55;;;;;;;;;;5048247;28;20384;-87
2021/06/22 12:56:04;;;;;;;38.97;21.10;;;;;;;;;;5050174;28;20037;-87
2021/06/22 12:58:25;;;;;;;40.22;21.77;;;;;;;;;;5052609;28;20044;-86
2021/06/22 13:00:50;;;;;;;37.65;22.60;;;;;;;;;;5050451;28;20045;-86
2021/06/22 13:03:20;;;;;;;40.50;20.58;;;;;;;;;;5046676;28;20036;-87
2021/06/22 13:05:50;;;;;;;36.83;21.90;;;;;;;;;;5051204;28;20020;-87
2021/06/22 13:08:16;;;;;;;33.30;20.63;;;;;;;;;;5049050;28;20538;-88
2021/06/22 13:10:46;;;;;;;33.25;22.08;;;;;;;;;;5064087;28;20352;-87
2021/06/22 13:13:11;;;;;;;37.58;23.80;;;;;;;;;;5051899;28;20022;-87
2021/06/22 13:15:37;;;;;;;46.08;24.25;;;;;;;;;;5051672;28;20021;-88
2021/06/22 13:18:03;;;;;;;43.38;24.33;;;;;;;;;;5053289;28;20009;-87
2021/06/22 13:20:31;;;;;;;40.42;24.92;;;;;;;;;;5052188;28;20017;-87
2021/06/22 13:23:02;;;;;;;39.72;24.50;;;;;;;;;;5051605;28;20500;-88
2021/06/22 13:25:28;;;;;;;33.90;20.92;;;;;;;;;;5051935;28;20071;-88
2021/06/22 13:28:06;;;;;;;35.50;21.42;;;;;;;;;;5046733;28;20024;-88
2021/06/22 13:30:32;;;;;;;33.45;21.35;;;;;;;;;;5051646;28;20020;-88
2021/06/22 13:32:58;;;;;;;34.25;20.80;;;;;;;;;;5051054;28;20021;-88
2021/06/22 13:35:28;;;;;;;29.85;21.23;;;;;;;;;;5051229;28;20495;-88
2021/06/22 13:37:55;;;;;;;33.83;21.95;;;;;;;;;;5050967;28;20124;-88
2021/06/22 13:40:20;;;;;;;33.38;19.52;;;;;;;;;;5053146;28;20020;-88
2021/06/22 13:43:04;;;;;;;29.63;20.40;;;;;;;;;;5050659;28;20361;-87
2021/06/22 13:45:33;;;;;;;33.30;21.65;;;;;;;;;;5049851;28;20059;-88
2021/06/22 13:47:58;;;;;;;32.33;18.33;;;;;;;;;;5084217;28;20044;-88
2021/06/22 13:50:24;;;;;;;30.83;21.08;;;;;;;;;;5062153;28;20033;-88
2021/06/22 13:52:51;;;;;;;42.95;22.50;;;;;;;;;;5050555;28;20047;-88
2021/06/22 13:55:31;;;;;;;38.25;24.17;;;;;;;;;;5050782;28;20049;-88
2021/06/22 13:57:56;;;;;;;33.63;20.98;;;;;;;;;;5047904;28;20430;-87
2021/06/22 14:00:22;;;;;;;33.47;19.55;;;;;;;;;;5084823;28;20029;-88
2021/06/22 14:02:47;;;;;;;40.67;23.98;;;;;;;;;;5051367;28;20128;-88
2021/06/22 14:05:12;;;;;;;36.28;24.65;;;;;;;;;;5045679;28;20029;-88
2021/06/22 14:07:39;;;;;;;36.28;23.55;;;;;;;;;;5050794;28;20447;-88
2021/06/22 14:10:05;;;;;;;46.13;25.25;;;;;;;;;;5049497;28;20034;-88
2021/06/22 14:12:30;;;;;;;43.95;26.25;;;;;;;;;;5081403;28;20020;-88
2021/06/22 14:14:55;;;;;;;38.63;23.02;;;;;;;;;;5046401;28;20032;-89
2021/06/22 14:17:20;;;;;;;43.03;26.15;;;;;;;;;;5051251;28;20469;-88
2021/06/22 14:19:46;;;;;;;45.33;26.13;;;;;;;;;;5050531;28;20049;-88
2021/06/22 14:22:11;;;;;;;39.13;26.85;;;;;;;;;;5049642;28;20025;-88
2021/06/22 14:24:36;;;;;;;41.42;27.83;;;;;;;;;;5051034;28;20534;-88
2021/06/22 14:27:01;;;;;;;45.97;26.30;;;;;;;;;;5049679;28;20032;-88
2021/06/22 14:29:26;;;;;;;51.20;26.27;;;;;;;;;;5050940;28;20028;-88
2021/06/22 14:31:52;;;;;;;37.40;24.52;;;;;;;;;;5082535;28;20029;-88
2021/06/22 14:34:18;;;;;;;37.75;25.55;;;;;;;;;;5050352;28;20480;-88